Time;durP1;ratioP1;P1;durP2;ratioP2;P2;SDS_P1;SDS_P2;PMS_P1;PMS_P2;Temp;Humidity;BMP_temperature;BMP_pressure;BME280_temperature;BME280_humidity;BME280_pressure;Samples;Min_cycle;Max_cycle;Signal;HPM_P1;HPM_P2
2022/01/02 00:00:19;;;;;;;13.63;2.33;;;10.70;99.90;;;;;;5053190;28;20510;-55
2022/01/02 00:02:56;;;;;;;3.72;2.40;;;10.70;99.90;;;;;;5057168;28;20390;-52
2022/01/02 00:05:23;;;;;;;3.38;2.30;;;10.70;99.90;;;;;;5056102;28;20411;-53
2022/01/02 00:08:09;;;;;;;3.53;2.17;;;10.70;99.90;;;;;;5053017;28;20032;-54
2022/01/02 00:10:52;;;;;;;4.55;2.15;;;10.70;99.90;;;;;;5054440;28;20071;-55
2022/01/02 00:13:29;;;;;;;4.82;2.00;;;10.70;99.90;;;;;;5050677;28;20037;-52
2022/01/02 00:15:56;;;;;;;6.43;2.53;;;10.70;99.90;;;;;;5054302;28;20021;-53
2022/01/02 00:18:26;;;;;;;3.22;2.35;;;10.70;99.90;;;;;;5055743;28;20056;-53
2022/01/02 00:20:53;;;;;;;5.68;2.50;;;10.70;99.90;;;;;;5056996;28;20024;-57
2022/01/02 00:23:29;;;;;;;3.35;2.72;;;10.70;99.90;;;;;;5054081;28;20530;-53
2022/01/02 00:25:58;;;;;;;5.30;2.50;;;10.70;99.90;;;;;;5055881;28;20372;-54
2022/01/02 00:28:26;;;;;;;5.57;2.40;;;10.70;99.90;;;;;;5056448;28;20717;-56
2022/01/02 00:30:53;;;;;;;4.00;2.17;;;10.70;99.90;;;;;;5056184;28;20032;-54
2022/01/02 00:33:19;;;;;;;4.22;2.67;;;10.70;99.90;;;;;;5057409;28;20021;-52
2022/01/02 00:35:45;;;;;;;4.40;2.47;;;10.70;99.90;;;;;;5052622;28;20020;-55
2022/01/02 00:38:20;;;;;;;6.45;3.28;;;10.70;99.90;;;;;;5054182;28;20032;-55
2022/01/02 00:40:48;;;;;;;2.00;1.80;;;10.70;99.90;;;;;;5054685;28;20032;-54
2022/01/02 00:43:21;;;;;;;2.92;2.20;;;10.70;99.90;;;;;;5046821;28;20399;-55
2022/01/02 00:45:51;;;;;;;3.33;2.05;;;10.70;99.90;;;;;;5054622;28;20024;-51
2022/01/02 00:48:26;;;;;;;8.25;2.65;;;10.80;99.90;;;;;;5053278;28;20035;-54
2022/01/02 00:50:56;;;;;;;5.38;3.00;;;10.80;99.90;;;;;;5056988;28;20021;-53
2022/01/02 00:53:25;;;;;;;4.47;2.28;;;10.70;99.90;;;;;;5053933;28;20403;-53
2022/01/02 00:55:57;;;;;;;3.25;2.90;;;10.70;99.90;;;;;;5056141;28;20029;-54
2022/01/02 00:58:33;;;;;;;5.20;2.47;;;10.80;99.90;;;;;;5054014;28;20048;-57
2022/01/02 01:01:03;;;;;;;4.15;2.97;;;10.70;99.90;;;;;;5054234;28;20025;-52
2022/01/02 01:03:31;;;;;;;8.07;3.53;;;10.60;99.90;;;;;;5050985;28;20108;-55
2022/01/02 01:06:01;;;;;;;3.33;2.70;;;10.60;99.90;;;;;;5051578;28;20032;-53
2022/01/02 01:08:30;;;;;;;4.57;2.88;;;10.60;99.90;;;;;;5054124;28;20032;-53
2022/01/02 01:10:56;;;;;;;4.70;3.03;;;10.50;99.90;;;;;;5053855;28;20394;-54
2022/01/02 01:13:23;;;;;;;5.07;2.80;;;10.50;99.90;;;;;;5054692;28;20029;-53
2022/01/02 01:15:50;;;;;;;5.80;3.20;;;10.50;99.90;;;;;;5054698;28;20021;-55
2022/01/02 01:18:15;;;;;;;4.85;2.85;;;10.50;99.90;;;;;;5055043;28;21880;-57
2022/01/02 01:20:43;;;;;;;7.03;2.90;;;10.50;99.90;;;;;;5051967;28;20017;-54
2022/01/02 01:23:16;;;;;;;8.80;3.70;;;10.50;99.90;;;;;;5057319;28;20025;-55
2022/01/02 01:25:47;;;;;;;4.85;3.00;;;10.50;99.90;;;;;;5058300;28;20028;-53
2022/01/02 01:28:14;;;;;;;4.97;2.85;;;10.50;99.90;;;;;;5058894;28;20046;-54
2022/01/02 01:30:40;;;;;;;4.78;3.20;;;10.50;99.90;;;;;;5057632;28;20389;-53
2022/01/02 01:33:06;;;;;;;5.10;2.88;;;10.50;99.90;;;;;;5057368;28;20499;-53
2022/01/02 01:35:31;;;;;;;4.10;2.63;;;10.40;99.90;;;;;;5055703;28;20093;-54
2022/01/02 01:37:57;;;;;;;6.30;3.35;;;10.50;99.90;;;;;;5057370;28;20048;-55
2022/01/02 01:40:23;;;;;;;6.43;2.80;;;10.40;99.90;;;;;;5054512;28;20471;-53
2022/01/02 01:42:59;;;;;;;4.78;2.83;;;10.40;99.90;;;;;;5058708;28;20134;-53
2022/01/02 01:45:28;;;;;;;6.55;2.80;;;10.40;99.90;;;;;;5059192;28;20036;-55
2022/01/02 01:47:55;;;;;;;5.25;3.20;;;10.40;99.90;;;;;;5053852;28;20029;-56
2022/01/02 01:50:27;;;;;;;3.63;3.03;;;10.40;99.90;;;;;;5056700;28;20432;-53
2022/01/02 01:52:53;;;;;;;6.72;3.60;;;10.40;99.90;;;;;;5057573;28;20495;-54
2022/01/02 01:55:19;;;;;;;3.88;2.88;;;10.30;99.90;;;;;;5058615;28;20028;-53
2022/01/02 01:57:46;;;;;;;6.03;3.50;;;10.30;99.90;;;;;;5058365;28;20040;-51
2022/01/02 02:00:15;;;;;;;6.32;4.70;;;10.30;99.90;;;;;;5052553;28;21797;-54
2022/01/02 02:02:42;;;;;;;6.00;3.53;;;10.30;99.90;;;;;;5054872;28;20028;-53
2022/01/02 02:05:08;;;;;;;5.50;3.53;;;10.20;99.90;;;;;;5058731;28;20487;-53
2022/01/02 02:07:41;;;;;;;5.38;3.38;;;10.20;99.90;;;;;;5057907;28;20034;-54
2022/01/02 02:12:37;;;;;;;6.40;3.65;;;10.30;99.90;;;;;;5056173;28;20167;-51
2022/01/02 02:15:03;;;;;;;7.03;3.95;;;10.20;99.90;;;;;;5057266;28;20427;-56
2022/01/02 02:17:30;;;;;;;7.15;4.30;;;10.30;99.90;;;;;;5057938;28;20029;-57
2022/01/02 02:20:14;;;;;;;5.13;4.03;;;10.30;99.90;;;;;;5054306;28;20021;-55
2022/01/02 02:22:41;;;;;;;5.38;4.18;;;10.20;99.90;;;;;;5056266;28;20029;-57
2022/01/02 02:25:07;;;;;;;5.32;4.20;;;10.20;99.90;;;;;;5052958;28;20033;-54
2022/01/02 02:27:33;;;;;;;4.95;4.22;;;10.20;99.90;;;;;;5058865;28;20572;-54
2022/01/02 02:29:59;;;;;;;6.75;4.20;;;10.20;99.90;;;;;;5056955;28;20112;-58
2022/01/02 02:32:25;;;;;;;7.60;4.72;;;10.20;99.90;;;;;;5054986;28;20040;-57
2022/01/02 02:34:51;;;;;;;7.22;4.45;;;10.20;99.90;;;;;;5055643;28;20510;-55
2022/01/02 02:37:16;;;;;;;5.05;3.90;;;10.20;99.90;;;;;;5051806;28;20017;-58
2022/01/02 02:39:42;;;;;;;8.13;4.63;;;10.20;99.90;;;;;;5054924;28;20517;-56
2022/01/02 02:42:20;;;;;;;9.18;4.55;;;10.20;99.90;;;;;;5073876;23;20045;-59
2022/01/02 02:44:47;;;;;;;7.05;4.50;;;10.20;99.90;;;;;;5063331;28;20112;-61
2022/01/02 02:49:56;;;;;;;10.77;4.80;;;10.20;99.90;;;;;;5063774;28;20027;-61
2022/01/02 02:52:41;;;;;;;9.18;4.82;;;10.20;99.90;;;;;;5055106;28;20040;-60
2022/01/02 02:55:07;;;;;;;7.07;4.38;;;10.10;99.90;;;;;;5058419;28;20021;-58
2022/01/02 02:57:33;;;;;;;6.57;4.53;;;10.10;99.90;;;;;;5056659;28;20031;-59
2022/01/02 02:59:59;;;;;;;7.13;5.28;;;10.10;99.90;;;;;;5037693;28;20022;-61
2022/01/02 03:02:25;;;;;;;8.15;5.25;;;10.10;99.90;;;;;;5051140;28;20051;-58
2022/01/02 03:04:50;;;;;;;6.63;4.60;;;10.10;99.90;;;;;;5035541;28;20115;-57
2022/01/02 03:07:16;;;;;;;9.02;5.70;;;10.10;99.90;;;;;;5058847;28;20423;-58
2022/01/02 03:09:47;;;;;;;7.72;4.82;;;10.10;99.90;;;;;;5058264;28;20120;-58
2022/01/02 03:12:13;;;;;;;7.13;4.60;;;10.10;99.90;;;;;;5049050;28;20268;-58
2022/01/02 03:14:39;;;;;;;12.82;6.75;;;10.10;99.90;;;;;;5057651;28;20395;-57
2022/01/02 03:17:05;;;;;;;7.90;4.65;;;10.10;99.90;;;;;;5041196;28;20063;-58
2022/01/02 03:19:32;;;;;;;9.93;5.55;;;10.10;99.90;;;;;;5049079;28;20036;-57
2022/01/02 03:21:58;;;;;;;7.75;5.88;;;10.10;99.90;;;;;;5054571;28;20059;-56
2022/01/02 03:24:24;;;;;;;9.60;5.80;;;10.10;99.90;;;;;;5051620;28;20459;-59
2022/01/02 03:26:50;;;;;;;10.07;5.75;;;10.10;99.90;;;;;;5039462;28;20510;-56
2022/01/02 03:29:15;;;;;;;6.95;5.45;;;10.10;99.90;;;;;;5037352;28;20112;-54
2022/01/02 03:31:41;;;;;;;6.82;5.05;;;10.10;99.90;;;;;;5055003;28;20009;-55
2022/01/02 03:34:07;;;;;;;6.07;5.18;;;10.10;99.90;;;;;;5056344;28;20121;-57
2022/01/02 03:36:32;;;;;;;12.50;6.75;;;10.10;99.90;;;;;;5052988;28;20098;-58
2022/01/02 03:38:58;;;;;;;10.45;6.20;;;10.00;99.90;;;;;;5052856;28;20032;-58
2022/01/02 03:41:23;;;;;;;9.77;5.95;;;10.10;99.90;;;;;;5049620;28;20126;-59
2022/01/02 03:43:49;;;;;;;10.00;6.28;;;10.00;99.90;;;;;;5043272;28;20032;-58
2022/01/02 03:46:15;;;;;;;8.70;5.78;;;10.00;99.90;;;;;;5064714;28;20051;-58
2022/01/02 03:48:40;;;;;;;9.23;6.50;;;10.00;99.90;;;;;;5041060;28;20028;-58
2022/01/02 03:51:06;;;;;;;7.70;5.65;;;10.00;99.90;;;;;;5056895;28;20036;-57
2022/01/02 03:53:31;;;;;;;8.23;5.82;;;10.00;99.90;;;;;;5052128;28;20028;-57
2022/01/02 03:55:57;;;;;;;12.27;6.15;;;10.00;99.90;;;;;;5056872;28;20060;-56
2022/01/02 03:58:23;;;;;;;11.27;6.30;;;10.00;99.90;;;;;;5050563;28;20025;-58
2022/01/02 04:00:48;;;;;;;8.95;6.20;;;10.10;99.90;;;;;;5058297;28;20055;-57
2022/01/02 04:03:15;;;;;;;8.73;5.85;;;10.00;99.90;;;;;;5036050;28;20036;-57
2022/01/02 04:05:42;;;;;;;9.40;6.90;;;10.00;99.90;;;;;;5058276;28;20036;-58
2022/01/02 04:08:08;;;;;;;7.40;6.05;;;10.00;99.90;;;;;;5042360;28;20094;-58
2022/01/02 04:10:33;;;;;;;10.77;6.90;;;10.10;99.90;;;;;;5056288;28;20496;-58
2022/01/02 04:12:59;;;;;;;8.23;6.10;;;10.10;99.90;;;;;;5051532;28;20029;-54
2022/01/02 04:15:24;;;;;;;8.65;6.93;;;10.00;99.90;;;;;;5054178;28;20025;-59
2022/01/02 04:17:50;;;;;;;9.05;6.47;;;10.00;99.90;;;;;;5035052;28;20021;-58
2022/01/02 04:20:17;;;;;;;9.32;7.28;;;10.00;99.90;;;;;;5056524;28;20020;-59
2022/01/02 04:22:43;;;;;;;13.55;7.53;;;10.10;99.90;;;;;;5055139;28;20028;-59
2022/01/02 04:25:09;;;;;;;11.88;7.30;;;10.00;99.90;;;;;;5056141;28;20028;-58
2022/01/02 04:27:35;;;;;;;12.15;7.65;;;10.00;99.90;;;;;;5058137;28;20107;-59
2022/01/02 04:30:02;;;;;;;9.65;7.88;;;10.10;99.90;;;;;;5045479;28;20032;-60
2022/01/02 04:32:28;;;;;;;9.70;7.82;;;10.00;99.90;;;;;;5057295;28;20451;-60
2022/01/02 04:34:54;;;;;;;10.10;8.05;;;10.10;99.90;;;;;;5054262;28;20110;-59
2022/01/02 04:37:19;;;;;;;10.30;8.07;;;10.00;99.90;;;;;;5065601;28;20024;-59
2022/01/02 04:39:45;;;;;;;9.80;7.82;;;10.00;99.90;;;;;;5054380;28;20020;-58
2022/01/02 04:42:10;;;;;;;10.10;8.25;;;10.00;99.90;;;;;;5051687;28;20483;-59
2022/01/02 04:44:36;;;;;;;9.75;8.30;;;10.00;99.90;;;;;;5055986;28;20103;-60
2022/01/02 04:47:02;;;;;;;10.52;8.30;;;10.00;99.90;;;;;;5051275;28;20484;-59
2022/01/02 04:49:28;;;;;;;9.55;8.15;;;10.10;99.90;;;;;;5049733;28;20028;-59
2022/01/02 04:51:54;;;;;;;11.93;8.88;;;10.00;99.90;;;;;;5040618;28;20017;-59
2022/01/02 04:54:21;;;;;;;12.35;8.00;;;10.00;99.90;;;;;;5054832;28;20414;-57
2022/01/02 04:56:47;;;;;;;13.20;8.00;;;10.10;99.90;;;;;;5036132;28;20017;-59
2022/01/02 04:59:12;;;;;;;10.98;7.97;;;10.00;99.90;;;;;;5047476;28;20562;-58
2022/01/02 05:01:38;;;;;;;9.65;7.10;;;10.00;99.90;;;;;;5032057;28;20190;-59
2022/01/02 05:04:03;;;;;;;12.20;8.00;;;10.00;99.90;;;;;;5053592;28;20156;-58
2022/01/02 05:06:29;;;;;;;12.00;8.25;;;10.00;99.90;;;;;;5050009;28;20025;-60
2022/01/02 05:08:55;;;;;;;9.57;7.70;;;10.00;99.90;;;;;;5051473;28;20403;-58
2022/01/02 05:11:20;;;;;;;10.18;8.43;;;10.00;99.90;;;;;;5052293;28;20079;-57
2022/01/02 05:13:46;;;;;;;11.73;9.05;;;10.00;99.90;;;;;;5049150;28;20071;-58
2022/01/02 05:16:11;;;;;;;11.50;8.50;;;10.00;99.90;;;;;;5051686;28;20032;-58
2022/01/02 05:18:37;;;;;;;11.27;8.80;;;10.00;99.90;;;;;;5048646;28;20103;-58
2022/01/02 05:21:03;;;;;;;10.13;8.13;;;10.00;99.90;;;;;;5048717;28;20039;-59
2022/01/02 05:23:29;;;;;;;10.85;8.88;;;10.00;99.90;;;;;;5051325;28;20581;-59
2022/01/02 05:25:56;;;;;;;9.88;8.38;;;10.00;99.90;;;;;;5056507;28;20025;-59
2022/01/02 05:28:22;;;;;;;11.25;8.07;;;10.00;99.90;;;;;;5054154;28;20061;-59
2022/01/02 05:30:47;;;;;;;9.23;7.93;;;10.00;99.90;;;;;;5040645;28;20029;-59
2022/01/02 05:33:13;;;;;;;10.98;8.90;;;10.00;99.90;;;;;;5058367;28;20029;-58
2022/01/02 05:35:38;;;;;;;9.90;8.32;;;10.00;99.90;;;;;;5048687;28;20024;-59
2022/01/02 05:38:04;;;;;;;12.23;8.68;;;10.00;99.90;;;;;;5050435;28;20025;-58
2022/01/02 05:40:32;;;;;;;10.98;8.25;;;10.00;99.90;;;;;;5047942;28;20491;-59
2022/01/02 05:42:59;;;;;;;10.80;8.13;;;10.00;99.90;;;;;;5051382;28;20036;-59
2022/01/02 05:45:25;;;;;;;9.48;8.45;;;10.00;99.90;;;;;;5046985;28;20122;-59
2022/01/02 05:47:50;;;;;;;10.68;8.93;;;10.00;99.90;;;;;;5060260;28;20517;-58
2022/01/02 05:50:16;;;;;;;10.70;8.20;;;10.00;99.90;;;;;;5053454;28;20029;-58
2022/01/02 05:52:41;;;;;;;9.48;8.35;;;10.00;99.90;;;;;;5046646;28;20035;-59
2022/01/02 05:55:07;;;;;;;9.63;8.45;;;10.00;99.90;;;;;;5049568;28;20032;-58
2022/01/02 05:57:33;;;;;;;10.50;8.25;;;10.00;99.90;;;;;;5048882;28;20056;-59
2022/01/02 05:59:58;;;;;;;9.27;8.23;;;10.00;99.90;;;;;;5050182;28;20425;-60
2022/01/02 06:02:24;;;;;;;10.10;8.95;;;10.00;99.90;;;;;;5042582;28;20136;-59
2022/01/02 06:04:50;;;;;;;10.25;8.32;;;10.00;99.90;;;;;;5048320;28;20100;-59
2022/01/02 06:07:16;;;;;;;10.02;8.27;;;10.00;99.90;;;;;;5050283;28;20036;-60
2022/01/02 06:09:41;;;;;;;10.25;8.38;;;10.00;99.90;;;;;;5035025;28;20028;-60
2022/01/02 06:12:08;;;;;;;10.90;8.05;;;10.00;99.90;;;;;;5055995;28;20036;-59
2022/01/02 06:14:33;;;;;;;13.98;8.73;;;10.00;99.90;;;;;;5057718;28;20028;-60
2022/01/02 06:16:59;;;;;;;13.75;8.70;;;10.00;99.90;;;;;;5055548;28;20037;-60
2022/01/02 06:19:25;;;;;;;12.75;8.18;;;10.00;99.90;;;;;;5040310;28;20021;-58
2022/01/02 06:21:51;;;;;;;11.43;8.57;;;10.00;99.90;;;;;;5058210;28;20024;-58
2022/01/02 06:24:16;;;;;;;10.43;7.95;;;10.00;99.90;;;;;;5052718;28;20033;-58
2022/01/02 06:26:42;;;;;;;12.38;8.55;;;9.90;99.90;;;;;;5056432;28;20039;-59
2022/01/02 06:29:08;;;;;;;13.90;9.63;;;10.00;99.90;;;;;;5051152;28;20033;-59
2022/01/02 06:31:33;;;;;;;12.02;9.52;;;10.00;99.90;;;;;;5042102;28;20040;-59
2022/01/02 06:33:59;;;;;;;13.05;10.43;;;10.00;99.90;;;;;;5056715;28;20021;-59
2022/01/02 06:36:24;;;;;;;14.02;10.32;;;10.00;99.90;;;;;;5061246;28;20153;-58
2022/01/02 06:38:50;;;;;;;14.90;10.00;;;10.00;99.90;;;;;;5057714;28;20033;-59
2022/01/02 06:41:16;;;;;;;13.07;10.32;;;10.00;99.90;;;;;;5056525;28;20033;-59
2022/01/02 06:43:43;;;;;;;13.02;10.48;;;10.00;99.90;;;;;;5036446;28;20040;-59
2022/01/02 06:46:09;;;;;;;16.77;10.13;;;10.00;99.90;;;;;;5053731;28;20021;-59
2022/01/02 06:48:35;;;;;;;12.35;9.23;;;10.00;99.90;;;;;;5038227;28;20033;-57
2022/01/02 06:51:00;;;;;;;12.52;10.40;;;10.00;99.90;;;;;;5059136;28;20382;-57
2022/01/02 06:53:26;;;;;;;12.07;9.73;;;10.00;99.90;;;;;;5053117;28;20060;-56
2022/01/02 06:55:52;;;;;;;11.05;9.32;;;10.00;99.90;;;;;;5057398;28;20028;-59
2022/01/02 06:58:18;;;;;;;10.80;9.25;;;10.10;99.90;;;;;;5049731;28;20028;-59
2022/01/02 07:00:44;;;;;;;13.25;11.07;;;10.00;99.90;;;;;;5051677;28;20021;-60
2022/01/02 07:03:09;;;;;;;12.27;10.65;;;10.10;99.90;;;;;;5045287;28;20035;-59
2022/01/02 07:05:35;;;;;;;12.80;9.55;;;10.10;99.90;;;;;;5063026;28;20025;-60
2022/01/02 07:08:01;;;;;;;10.43;8.85;;;10.00;99.90;;;;;;5060338;28;20511;-59
2022/01/02 07:10:27;;;;;;;12.30;9.45;;;10.10;99.90;;;;;;5053336;28;20076;-60
2022/01/02 07:12:53;;;;;;;11.45;9.75;;;10.10;99.90;;;;;;5059408;28;20504;-60
2022/01/02 07:15:18;;;;;;;12.82;10.20;;;10.10;99.90;;;;;;5057759;28;20029;-60
2022/01/02 07:17:44;;;;;;;14.50;10.93;;;10.10;99.90;;;;;;5050527;28;20386;-58
2022/01/02 07:20:12;;;;;;;13.10;11.18;;;10.10;99.90;;;;;;5040329;28;20033;-60
2022/01/02 07:22:40;;;;;;;14.27;11.25;;;10.10;99.90;;;;;;5036467;28;20037;-60
2022/01/02 07:25:07;;;;;;;12.93;10.68;;;10.10;99.90;;;;;;5052204;28;20032;-58
2022/01/02 07:27:32;;;;;;;13.02;10.95;;;10.20;99.90;;;;;;5054517;28;20044;-55
2022/01/02 07:29:59;;;;;;;13.55;11.55;;;10.20;99.90;;;;;;5054004;28;20048;-57
2022/01/02 07:32:25;;;;;;;14.02;11.15;;;10.10;99.90;;;;;;5055898;28;20047;-59
2022/01/02 07:34:50;;;;;;;15.88;11.27;;;10.20;99.90;;;;;;5040959;28;20036;-58
2022/01/02 07:37:18;;;;;;;13.32;10.43;;;10.10;99.90;;;;;;5058284;28;20025;-57
2022/01/02 07:39:43;;;;;;;14.43;11.63;;;10.20;99.90;;;;;;5051669;28;20035;-58
2022/01/02 07:42:09;;;;;;;13.48;10.82;;;10.20;99.90;;;;;;5049023;28;20025;-57
2022/01/02 07:44:36;;;;;;;13.88;11.13;;;10.20;99.90;;;;;;5056374;28;20060;-57
2022/01/02 07:47:03;;;;;;;18.25;11.15;;;10.20;99.90;;;;;;5048771;28;20098;-58
2022/01/02 07:49:29;;;;;;;11.60;10.40;;;10.20;99.90;;;;;;5056180;28;20420;-59
2022/01/02 07:51:55;;;;;;;14.20;9.40;;;10.20;99.90;;;;;;5057786;28;20104;-59
2022/01/02 07:54:20;;;;;;;15.02;10.45;;;10.20;99.90;;;;;;5051297;28;20031;-58
2022/01/02 07:56:46;;;;;;;12.57;9.85;;;10.20;99.90;;;;;;5037351;28;20048;-56
2022/01/02 07:59:12;;;;;;;18.23;11.60;;;10.30;99.90;;;;;;5053594;28;20032;-56
2022/01/02 08:01:38;;;;;;;12.57;10.13;;;10.30;99.90;;;;;;5048804;28;20029;-58
2022/01/02 08:04:03;;;;;;;20.50;11.57;;;10.30;99.90;;;;;;5053100;28;20041;-58
2022/01/02 08:06:29;;;;;;;14.75;10.48;;;10.30;99.90;;;;;;5053923;28;20066;-58
2022/01/02 08:08:55;;;;;;;11.48;9.82;;;10.30;99.90;;;;;;5054727;28;20480;-59
2022/01/02 08:11:20;;;;;;;18.13;11.02;;;10.30;99.90;;;;;;5054146;28;20049;-60
2022/01/02 08:13:46;;;;;;;18.02;10.65;;;10.40;99.90;;;;;;5056018;28;20029;-59
2022/01/02 08:16:12;;;;;;;14.63;11.00;;;10.40;99.90;;;;;;5035110;28;20029;-59
2022/01/02 08:18:39;;;;;;;15.25;11.00;;;10.40;99.90;;;;;;5056560;28;20402;-59
2022/01/02 08:21:05;;;;;;;18.48;10.95;;;10.40;99.90;;;;;;5051771;28;20111;-60
2022/01/02 08:23:31;;;;;;;14.05;9.75;;;10.40;99.90;;;;;;5049755;28;20064;-58
2022/01/02 08:25:56;;;;;;;17.00;10.18;;;10.50;99.90;;;;;;5045619;28;20029;-59
2022/01/02 08:28:22;;;;;;;14.48;9.65;;;10.50;99.90;;;;;;5054568;28;20441;-59
2022/01/02 08:30:47;;;;;;;18.70;10.10;;;10.50;99.90;;;;;;5056550;28;20112;-60
2022/01/02 08:33:14;;;;;;;13.23;9.27;;;10.50;99.90;;;;;;5036051;28;20029;-57
2022/01/02 08:35:41;;;;;;;15.55;8.90;;;10.50;99.90;;;;;;5048083;28;20064;-59
2022/01/02 08:38:06;;;;;;;9.70;7.97;;;10.50;99.90;;;;;;5051241;28;20027;-60
2022/01/02 08:40:32;;;;;;;11.95;7.65;;;10.60;99.90;;;;;;5049742;28;20119;-60
2022/01/02 08:42:58;;;;;;;15.05;9.15;;;10.50;99.90;;;;;;5112906;22;20561;-53
2022/01/02 08:45:23;;;;;;;13.85;7.75;;;10.60;99.90;;;;;;5026735;28;20431;-50
2022/01/02 08:47:49;;;;;;;11.20;8.00;;;10.60;99.90;;;;;;5044426;28;20063;-49
2022/01/02 08:50:15;;;;;;;10.15;6.35;;;10.60;99.90;;;;;;5046970;28;20475;-50
2022/01/02 08:52:40;;;;;;;10.75;7.43;;;10.60;99.90;;;;;;5050242;28;20107;-53
2022/01/02 08:55:07;;;;;;;16.52;7.43;;;10.60;99.90;;;;;;5058757;28;20029;-50
2022/01/02 08:57:33;;;;;;;15.35;7.20;;;10.70;99.90;;;;;;5058219;28;20020;-49
2022/01/02 08:59:58;;;;;;;14.38;7.00;;;10.70;99.90;;;;;;5058830;28;20067;-51
2022/01/02 09:02:24;;;;;;;9.32;6.07;;;10.70;99.90;;;;;;5055004;28;20394;-50
2022/01/02 09:04:49;;;;;;;11.13;6.53;;;10.70;99.90;;;;;;5057011;28;20033;-51
2022/01/02 09:07:16;;;;;;;10.80;6.88;;;10.70;99.90;;;;;;5056703;28;20437;-48
2022/01/02 09:09:41;;;;;;;14.00;6.25;;;10.70;99.90;;;;;;5056054;28;20083;-48
2022/01/02 09:12:08;;;;;;;18.30;6.60;;;10.80;99.90;;;;;;5056952;28;20498;-50
2022/01/02 09:14:35;;;;;;;10.77;6.07;;;10.80;99.90;;;;;;5056608;28;20104;-53
2022/01/02 09:17:00;;;;;;;11.40;5.63;;;10.80;99.90;;;;;;5057499;28;20025;-54
2022/01/02 09:19:26;;;;;;;8.43;5.30;;;10.80;99.90;;;;;;5058375;28;20066;-54
2022/01/02 09:21:51;;;;;;;10.25;5.13;;;10.80;99.90;;;;;;5057090;28;20025;-54
2022/01/02 09:24:17;;;;;;;10.02;5.57;;;10.80;99.90;;;;;;5056804;28;20048;-54
2022/01/02 09:26:43;;;;;;;9.60;5.90;;;10.80;99.90;;;;;;5056170;28;20029;-58
2022/01/02 09:29:08;;;;;;;8.60;4.78;;;10.80;99.90;;;;;;5056513;28;20024;-50
2022/01/02 09:31:34;;;;;;;11.25;4.72;;;10.80;99.90;;;;;;5056663;28;20478;-50
2022/01/02 09:34:00;;;;;;;8.77;4.78;;;10.90;99.90;;;;;;5056661;28;20490;-53
2022/01/02 09:36:25;;;;;;;10.70;4.88;;;10.90;99.90;;;;;;5057543;28;20047;-52
2022/01/02 09:38:52;;;;;;;9.00;4.43;;;10.90;99.90;;;;;;5051098;28;20017;-54
2022/01/02 09:41:19;;;;;;;9.93;4.78;;;10.90;99.90;;;;;;5055436;28;20028;-53
2022/01/02 09:43:47;;;;;;;11.68;4.43;;;10.90;99.90;;;;;;5058707;28;20044;-53
2022/01/02 09:46:20;;;;;;;6.20;4.47;;;10.90;99.90;;;;;;5062741;28;20127;-53
2022/01/02 09:48:48;;;;;;;7.45;4.28;;;10.90;99.90;;;;;;5064627;28;20517;-52
2022/01/02 09:51:15;;;;;;;5.65;4.13;;;10.90;99.90;;;;;;5065477;28;20074;-56
2022/01/02 09:53:41;;;;;;;11.38;4.55;;;10.90;99.90;;;;;;5061839;28;20023;-54
2022/01/02 09:56:06;;;;;;;10.52;4.30;;;10.90;99.90;;;;;;5060520;28;20028;-52
2022/01/02 09:58:34;;;;;;;8.27;4.20;;;11.00;99.90;;;;;;5043018;28;20027;-50
2022/01/02 10:01:00;;;;;;;6.70;4.35;;;10.90;99.90;;;;;;5061245;28;20021;-50
2022/01/02 10:03:25;;;;;;;7.78;4.07;;;11.00;99.90;;;;;;5060406;28;20039;-51
2022/01/02 10:05:56;;;;;;;7.20;3.67;;;11.00;99.90;;;;;;5060825;28;20119;-51
2022/01/02 10:08:27;;;;;;;8.32;4.03;;;11.00;99.90;;;;;;5061502;28;20195;-48
2022/01/02 10:11:11;;;;;;;6.38;4.55;;;11.00;99.90;;;;;;5060985;28;20061;-49
2022/01/02 10:13:40;;;;;;;5.40;3.40;;;11.00;99.90;;;;;;5054388;28;20051;-51
2022/01/02 10:16:20;;;;;;;8.48;3.75;;;11.00;99.90;;;;;;5060690;28;20028;-47
2022/01/02 10:18:48;;;;;;;6.03;3.95;;;11.00;99.90;;;;;;5061578;28;20016;-48
2022/01/02 10:21:29;;;;;;;10.02;4.40;;;11.00;99.90;;;;;;5061006;28;20112;-48
2022/01/02 10:24:17;;;;;;;12.10;4.45;;;11.10;99.90;;;;;;5061505;28;20163;-52
2022/01/02 10:27:08;;;;;;;8.63;3.47;;;11.10;99.90;;;;;;5055139;28;20086;-49
2022/01/02 10:29:39;;;;;;;6.97;3.63;;;11.10;99.90;;;;;;5053731;28;20036;-50
2022/01/02 10:32:24;;;;;;;7.40;4.28;;;11.10;99.90;;;;;;5061191;28;20021;-53
2022/01/02 10:34:51;;;;;;;9.27;4.38;;;11.10;99.90;;;;;;5061056;28;20034;-53
2022/01/02 10:37:26;;;;;;;9.32;4.38;;;11.10;99.90;;;;;;5061382;28;20029;-50
2022/01/02 10:39:52;;;;;;;11.93;4.28;;;11.10;99.90;;;;;;5061074;28;20466;-49
2022/01/02 10:42:19;;;;;;;9.15;3.65;;;11.10;99.90;;;;;;5059395;28;20071;-49
2022/01/02 10:44:46;;;;;;;4.40;3.65;;;11.10;99.90;;;;;;5059473;28;20032;-48
2022/01/02 10:47:24;;;;;;;6.97;3.65;;;11.10;99.90;;;;;;5059030;28;20024;-49
2022/01/02 10:50:04;;;;;;;8.77;3.92;;;11.10;99.90;;;;;;5058889;28;20108;-49
2022/01/02 10:52:46;;;;;;;6.75;3.47;;;11.10;99.90;;;;;;5060695;28;20033;-51
2022/01/02 10:55:19;;;;;;;5.95;3.22;;;11.10;99.90;;;;;;5059026;28;20032;-50
2022/01/02 10:57:49;;;;;;;9.52;3.63;;;11.10;99.90;;;;;;5058280;28;20475;-50
2022/01/02 11:00:16;;;;;;;8.40;3.95;;;11.10;99.90;;;;;;5061114;28;20028;-50
2022/01/02 11:02:43;;;;;;;5.85;4.03;;;11.10;99.90;;;;;;5059971;28;20029;-48
2022/01/02 11:05:11;;;;;;;6.82;3.90;;;11.10;99.90;;;;;;5058893;28;20020;-53
2022/01/02 11:07:58;;;;;;;6.53;3.70;;;11.10;99.90;;;;;;5059601;28;20025;-48
2022/01/02 11:10:24;;;;;;;10.48;4.03;;;11.10;99.90;;;;;;5058762;28;20029;-48
2022/01/02 11:12:52;;;;;;;5.60;3.75;;;11.10;99.90;;;;;;5059463;28;20029;-51
2022/01/02 11:15:19;;;;;;;5.97;3.40;;;11.10;99.90;;;;;;5058486;28;20017;-51
2022/01/02 11:17:46;;;;;;;7.30;3.67;;;11.10;99.90;;;;;;5058985;28;20049;-54
2022/01/02 11:20:18;;;;;;;5.07;3.97;;;11.10;99.90;;;;;;5059652;28;20024;-54
2022/01/02 11:23:14;;;;;;;6.72;3.88;;;11.10;99.90;;;;;;5059002;28;20025;-49
2022/01/02 11:25:52;;;;;;;6.60;3.53;;;11.10;99.90;;;;;;5054176;28;20021;-53
2022/01/02 11:28:31;;;;;;;6.70;3.55;;;11.20;99.90;;;;;;5057539;28;20123;-54
2022/01/02 11:30:57;;;;;;;5.57;3.67;;;11.20;99.90;;;;;;5057374;28;20025;-51
2022/01/02 11:33:49;;;;;;;7.20;3.75;;;11.20;99.90;;;;;;5057447;28;20033;-54
2022/01/02 11:36:22;;;;;;;4.38;3.35;;;11.10;99.90;;;;;;5054809;28;20063;-49
2022/01/02 11:39:02;;;;;;;4.47;3.90;;;11.20;99.90;;;;;;5059293;28;20024;-48
2022/01/02 11:41:41;;;;;;;6.30;3.85;;;11.10;99.90;;;;;;5039079;28;20048;-51
2022/01/02 11:44:11;;;;;;;7.22;4.25;;;11.10;99.90;;;;;;5057153;28;20032;-48
2022/01/02 11:46:47;;;;;;;5.78;3.78;;;11.10;99.90;;;;;;5057075;28;20029;-52
2022/01/02 11:49:15;;;;;;;8.10;4.57;;;11.10;99.90;;;;;;5058809;28;20063;-50
2022/01/02 11:51:47;;;;;;;8.52;5.05;;;11.10;99.90;;;;;;5058074;28;20559;-48
2022/01/02 11:54:28;;;;;;;5.55;4.55;;;11.10;99.90;;;;;;5051969;28;20029;-49
2022/01/02 11:56:57;;;;;;;6.25;4.60;;;11.10;99.90;;;;;;5056158;28;20035;-51
2022/01/02 11:59:46;;;;;;;9.80;5.30;;;11.10;99.90;;;;;;5055328;28;20140;-50
2022/01/02 12:02:24;;;;;;;9.52;5.03;;;11.10;99.90;;;;;;5042501;28;20033;-49
2022/01/02 12:04:59;;;;;;;6.60;4.72;;;11.10;99.90;;;;;;5058861;28;20402;-50
2022/01/02 12:07:34;;;;;;;6.85;4.72;;;11.10;99.90;;;;;;5056731;28;20101;-50
2022/01/02 12:10:18;;;;;;;9.77;5.47;;;11.10;99.90;;;;;;5056885;28;20514;-50
2022/01/02 12:13:06;;;;;;;9.15;5.60;;;11.00;99.90;;;;;;5057472;28;20056;-49
2022/01/02 12:15:32;;;;;;;8.98;4.68;;;11.10;99.90;;;;;;5056757;28;20541;-53
2022/01/02 12:18:09;;;;;;;9.73;5.63;;;11.10;99.90;;;;;;5058316;28;20025;-51
2022/01/02 12:20:50;;;;;;;9.85;5.25;;;11.10;99.90;;;;;;5057222;28;20024;-52
2022/01/02 12:23:34;;;;;;;10.70;5.82;;;11.00;99.90;;;;;;5058505;28;20028;-51
2022/01/02 12:26:21;;;;;;;7.03;4.72;;;11.00;99.90;;;;;;5057973;28;20470;-50
2022/01/02 12:29:01;;;;;;;6.63;5.75;;;11.10;99.90;;;;;;5057951;28;20035;-51
2022/01/02 12:31:42;;;;;;;14.98;8.35;;;11.10;99.90;;;;;;5039961;28;20025;-52
2022/01/02 12:34:11;;;;;;;12.77;6.53;;;11.00;99.90;;;;;;5057700;28;20024;-50
2022/01/02 12:36:41;;;;;;;11.95;6.22;;;11.00;99.90;;;;;;5057931;28;20021;-56
2022/01/02 12:39:13;;;;;;;14.13;9.10;;;11.00;99.90;;;;;;5057365;28;20136;-51
2022/01/02 12:41:41;;;;;;;10.20;7.80;;;11.00;99.90;;;;;;5058621;28;20241;-50
2022/01/02 12:44:15;;;;;;;10.40;5.63;;;11.00;99.90;;;;;;5057696;28;20043;-51
2022/01/02 12:46:55;;;;;;;12.32;10.18;;;11.10;99.90;;;;;;5058046;28;20035;-55
2022/01/02 12:49:23;;;;;;;10.32;7.10;;;11.00;99.90;;;;;;5057548;28;20251;-49
2022/01/02 12:51:54;;;;;;;7.22;5.85;;;11.10;99.90;;;;;;5058206;28;20032;-51